sensor_id;sensor_type;location;lat;lon;timestamp;pressure;altitude;pressure_sealevel;temperature;humidity
17254;BME280;32542;52.832;13.816;2023-04-03T00:00:23;102990.75;;;21.87;44.64
17254;BME280;32542;52.832;13.816;2023-04-03T00:03:26;102987.22;;;21.86;44.79
17254;BME280;32542;52.832;13.816;2023-04-03T00:06:29;102983.66;;;21.86;44.81
17254;BME280;32542;52.832;13.816;2023-04-03T00:09:33;102986.34;;;21.86;44.68
17254;BME280;32542;52.832;13.816;2023-04-03T00:12:36;102985.44;;;21.85;44.87
17254;BME280;32542;52.832;13.816;2023-04-03T00:15:40;102987.22;;;21.86;44.77
17254;BME280;32542;52.832;13.816;2023-04-03T00:18:43;102989.00;;;21.86;44.74
17254;BME280;32542;52.832;13.816;2023-04-03T00:21:46;102990.78;;;21.85;44.77
17254;BME280;32542;52.832;13.816;2023-04-03T00:24:51;102987.22;;;21.85;44.66
17254;BME280;32542;52.832;13.816;2023-04-03T00:27:54;102987.22;;;21.85;44.84
17254;BME280;32542;52.832;13.816;2023-04-03T00:30:58;102985.47;;;21.84;44.64
17254;BME280;32542;52.832;13.816;2023-04-03T00:34:01;102989.03;;;21.84;44.67
17254;BME280;32542;52.832;13.816;2023-04-03T00:37:04;102980.16;;;21.84;44.75
17254;BME280;32542;52.832;13.816;2023-04-03T00:40:10;102981.91;;;21.83;44.69
17254;BME280;32542;52.832;13.816;2023-04-03T00:43:15;102986.38;;;21.83;44.69
17254;BME280;32542;52.832;13.816;2023-04-03T00:46:19;102981.94;;;21.82;44.82
17254;BME280;32542;52.832;13.816;2023-04-03T00:49:22;102995.25;;;21.82;44.69
17254;BME280;32542;52.832;13.816;2023-04-03T00:52:28;102997.03;;;21.81;44.82
17254;BME280;32542;52.832;13.816;2023-04-03T00:55:34;102997.03;;;21.81;44.74
17254;BME280;32542;52.832;13.816;2023-04-03T00:58:42;102985.47;;;21.81;44.74
17254;BME280;32542;52.832;13.816;2023-04-03T01:01:47;102991.72;;;21.81;44.77
17254;BME280;32542;52.832;13.816;2023-04-03T01:04:51;102997.03;;;21.81;44.65
17254;BME280;32542;52.832;13.816;2023-04-03T01:07:54;102999.72;;;21.81;44.73
17254;BME280;32542;52.832;13.816;2023-04-03T01:10:59;102998.81;;;21.81;44.76
17254;BME280;32542;52.832;13.816;2023-04-03T01:14:02;102991.72;;;21.81;44.73
17254;BME280;32542;52.832;13.816;2023-04-03T01:17:26;103002.38;;;21.81;44.66
17254;BME280;32542;52.832;13.816;2023-04-03T01:21:04;102990.81;;;21.81;44.69
17254;BME280;32542;52.832;13.816;2023-04-03T01:24:30;102989.94;;;21.80;44.63
17254;BME280;32542;52.832;13.816;2023-04-03T01:27:36;102996.19;;;21.79;44.67
17254;BME280;32542;52.832;13.816;2023-04-03T01:30:43;102989.06;;;21.80;44.70
17254;BME280;32542;52.832;13.816;2023-04-03T01:33:52;102984.63;;;21.78;44.77
17254;BME280;32542;52.832;13.816;2023-04-03T01:36:56;102985.50;;;21.79;44.72
17254;BME280;32542;52.832;13.816;2023-04-03T01:39:59;102989.97;;;21.78;44.70
17254;BME280;32542;52.832;13.816;2023-04-03T01:43:02;102995.28;;;21.78;44.68
17254;BME280;32542;52.832;13.816;2023-04-03T01:46:05;103005.97;;;21.78;44.71
17254;BME280;32542;52.832;13.816;2023-04-03T01:49:10;103007.75;;;21.80;44.48
17254;BME280;32542;52.832;13.816;2023-04-03T01:52:13;103016.59;;;21.80;44.73
17254;BME280;32542;52.832;13.816;2023-04-03T01:55:16;103018.41;;;21.80;44.65
17254;BME280;32542;52.832;13.816;2023-04-03T01:58:19;103026.38;;;21.81;44.70
17254;BME280;32542;52.832;13.816;2023-04-03T02:01:24;103022.84;;;21.79;44.65
17254;BME280;32542;52.832;13.816;2023-04-03T02:04:29;103021.94;;;21.80;44.72
17254;BME280;32542;52.832;13.816;2023-04-03T02:07:32;103017.53;;;21.79;44.67
17254;BME280;32542;52.832;13.816;2023-04-03T02:10:35;103015.75;;;21.80;44.51
17254;BME280;32542;52.832;13.816;2023-04-03T02:13:40;103031.75;;;21.78;44.68
17254;BME280;32542;52.832;13.816;2023-04-03T02:16:43;103025.53;;;21.79;44.75
17254;BME280;32542;52.832;13.816;2023-04-03T02:19:47;103022.84;;;21.79;44.72
17254;BME280;32542;52.832;13.816;2023-04-03T02:22:51;103026.41;;;21.78;44.65
17254;BME280;32542;52.832;13.816;2023-04-03T02:26:03;103026.41;;;21.80;44.62
17254;BME280;32542;52.832;13.816;2023-04-03T02:29:06;103023.75;;;21.80;44.68
17254;BME280;32542;52.832;13.816;2023-04-03T02:32:09;103026.41;;;21.78;44.66
17254;BME280;32542;52.832;13.816;2023-04-03T02:35:15;103022.84;;;21.79;44.64
17254;BME280;32542;52.832;13.816;2023-04-03T02:38:19;103029.09;;;21.78;44.63
17254;BME280;32542;52.832;13.816;2023-04-03T02:41:23;103035.28;;;21.80;44.57
17254;BME280;32542;52.832;13.816;2023-04-03T02:44:28;103039.75;;;21.80;44.57
17254;BME280;32542;52.832;13.816;2023-04-03T02:47:32;103039.75;;;21.80;44.73
17254;BME280;32542;52.832;13.816;2023-04-03T02:50:36;103044.19;;;21.79;44.57
17254;BME280;32542;52.832;13.816;2023-04-03T02:53:39;103037.97;;;21.78;44.65
17254;BME280;32542;52.832;13.816;2023-04-03T02:56:48;103042.41;;;21.78;44.74
17254;BME280;32542;52.832;13.816;2023-04-03T02:59:51;103045.97;;;21.78;44.73
17254;BME280;32542;52.832;13.816;2023-04-03T03:02:54;103041.53;;;21.79;44.68
17254;BME280;32542;52.832;13.816;2023-04-03T03:06:06;103045.97;;;21.78;44.61
17254;BME280;32542;52.832;13.816;2023-04-03T03:09:09;103044.19;;;21.79;44.57
17254;BME280;32542;52.832;13.816;2023-04-03T03:12:12;103045.94;;;21.80;44.62
17254;BME280;32542;52.832;13.816;2023-04-03T03:15:15;103053.94;;;21.80;44.56
17254;BME280;32542;52.832;13.816;2023-04-03T03:18:18;103049.53;;;21.79;44.58
17254;BME280;32542;52.832;13.816;2023-04-03T03:21:24;103050.41;;;21.80;44.58
17254;BME280;32542;52.832;13.816;2023-04-03T03:24:27;103051.31;;;21.78;44.58
17254;BME280;32542;52.832;13.816;2023-04-03T03:27:30;103051.28;;;21.80;44.56
17254;BME280;32542;52.832;13.816;2023-04-03T03:30:33;103056.59;;;21.80;44.61
17254;BME280;32542;52.832;13.816;2023-04-03T03:33:37;103065.53;;;21.79;44.60
17254;BME280;32542;52.832;13.816;2023-04-03T03:36:41;103063.72;;;21.81;44.60
17254;BME280;32542;52.832;13.816;2023-04-03T03:39:44;103054.84;;;21.81;44.60
17254;BME280;32542;52.832;13.816;2023-04-03T03:42:47;103061.94;;;21.82;44.53
17254;BME280;32542;52.832;13.816;2023-04-03T03:45:51;103061.94;;;21.82;44.57
17254;BME280;32542;52.832;13.816;2023-04-03T03:48:56;103062.88;;;21.82;44.52
17254;BME280;32542;52.832;13.816;2023-04-03T03:52:00;103058.38;;;21.81;44.45
17254;BME280;32542;52.832;13.816;2023-04-03T03:55:04;103064.63;;;21.82;44.52
17254;BME280;32542;52.832;13.816;2023-04-03T03:58:09;103069.06;;;21.81;44.44
17254;BME280;32542;52.832;13.816;2023-04-03T04:01:13;103065.53;;;21.82;44.56
17254;BME280;32542;52.832;13.816;2023-04-03T04:04:20;103056.59;;;21.80;44.48
17254;BME280;32542;52.832;13.816;2023-04-03T04:07:25;103052.16;;;21.81;44.58
17254;BME280;32542;52.832;13.816;2023-04-03T04:10:31;103062.84;;;21.81;44.51
17254;BME280;32542;52.832;13.816;2023-04-03T04:13:34;103056.59;;;21.80;44.54
17254;BME280;32542;52.832;13.816;2023-04-03T04:16:39;103068.16;;;21.81;44.58
17254;BME280;32542;52.832;13.816;2023-04-03T04:19:47;103064.63;;;21.82;44.60
17254;BME280;32542;52.832;13.816;2023-04-03T04:22:52;103069.94;;;21.82;44.60
17254;BME280;32542;52.832;13.816;2023-04-03T04:25:57;103071.72;;;21.83;44.72
17254;BME280;32542;52.832;13.816;2023-04-03T04:29:02;103070.88;;;21.82;44.49
17254;BME280;32542;52.832;13.816;2023-04-03T04:32:08;103073.53;;;21.82;44.58
17254;BME280;32542;52.832;13.816;2023-04-03T04:35:11;103074.41;;;21.83;44.58
17254;BME280;32542;52.832;13.816;2023-04-03T04:38:21;103065.53;;;21.82;44.56
17254;BME280;32542;52.832;13.816;2023-04-03T04:41:26;103075.28;;;21.82;44.59
17254;BME280;32542;52.832;13.816;2023-04-03T04:44:30;103077.06;;;21.81;44.53
17254;BME280;32542;52.832;13.816;2023-04-03T04:47:33;103079.72;;;21.81;44.63
17254;BME280;32542;52.832;13.816;2023-04-03T04:50:36;103079.72;;;21.81;44.58
17254;BME280;32542;52.832;13.816;2023-04-03T04:53:41;103078.88;;;21.82;44.51
17254;BME280;32542;52.832;13.816;2023-04-03T04:56:47;103075.28;;;21.80;44.58
17254;BME280;32542;52.832;13.816;2023-04-03T04:59:51;103091.28;;;21.82;44.67
17254;BME280;32542;52.832;13.816;2023-04-03T05:02:54;103093.97;;;21.80;44.63
17254;BME280;32542;52.832;13.816;2023-04-03T05:05:58;103092.22;;;21.79;44.72
17254;BME280;32542;52.832;13.816;2023-04-03T05:09:05;103095.75;;;21.78;44.80
17254;BME280;32542;52.832;13.816;2023-04-03T05:12:09;103099.34;;;21.77;44.74
17254;BME280;32542;52.832;13.816;2023-04-03T05:15:18;103102.06;;;21.75;44.73
17254;BME280;32542;52.832;13.816;2023-04-03T05:18:21;103105.59;;;21.74;44.70
17254;BME280;32542;52.832;13.816;2023-04-03T05:21:26;103107.41;;;21.72;44.74
17254;BME280;32542;52.832;13.816;2023-04-03T05:24:38;103108.34;;;21.71;44.70
17254;BME280;32542;52.832;13.816;2023-04-03T05:27:42;103116.34;;;21.70;44.78
17254;BME280;32542;52.832;13.816;2023-04-03T05:30:52;103111.00;;;21.70;44.71
17254;BME280;32542;52.832;13.816;2023-04-03T05:33:56;103110.16;;;21.68;44.59
17254;BME280;32542;52.832;13.816;2023-04-03T05:37:01;103111.03;;;21.68;44.72
17254;BME280;32542;52.832;13.816;2023-04-03T05:40:08;103111.94;;;21.69;44.71
17254;BME280;32542;52.832;13.816;2023-04-03T05:43:15;103110.16;;;21.68;44.94
17254;BME280;32542;52.832;13.816;2023-04-03T05:46:19;103111.94;;;21.69;44.76
17254;BME280;32542;52.832;13.816;2023-04-03T05:49:27;103111.94;;;21.69;44.78
17254;BME280;32542;52.832;13.816;2023-04-03T05:52:33;103115.47;;;21.68;44.80
17254;BME280;32542;52.832;13.816;2023-04-03T05:55:39;103113.75;;;21.64;44.70
17254;BME280;32542;52.832;13.816;2023-04-03T05:58:42;103122.72;;;21.60;44.37
17254;BME280;32542;52.832;13.816;2023-04-03T06:01:45;103131.69;;;21.54;44.19
17254;BME280;32542;52.832;13.816;2023-04-03T06:04:48;103123.72;;;21.51;43.72
17254;BME280;32542;52.832;13.816;2023-04-03T06:07:53;103122.88;;;21.46;43.50
17254;BME280;32542;52.832;13.816;2023-04-03T06:10:57;103132.72;;;21.43;43.15
17254;BME280;32542;52.832;13.816;2023-04-03T06:14:01;103128.34;;;21.39;43.21
17254;BME280;32542;52.832;13.816;2023-04-03T06:17:04;103135.50;;;21.35;42.99
17254;BME280;32542;52.832;13.816;2023-04-03T06:20:08;103136.41;;;21.33;43.79
17254;BME280;32542;52.832;13.816;2023-04-03T06:23:12;103139.09;;;21.30;42.23
17254;BME280;32542;52.832;13.816;2023-04-03T06:26:16;103142.72;;;21.26;40.70
17254;BME280;32542;52.832;13.816;2023-04-03T06:29:20;103136.59;;;21.18;38.09
17254;BME280;32542;52.832;13.816;2023-04-03T06:32:23;103145.56;;;21.12;37.08
17254;BME280;32542;52.832;13.816;2023-04-03T06:35:26;103151.81;;;21.07;36.38
17254;BME280;32542;52.832;13.816;2023-04-03T06:38:30;103143.81;;;21.10;36.01
17254;BME280;32542;52.832;13.816;2023-04-03T06:41:34;103149.84;;;21.21;36.04
17254;BME280;32542;52.832;13.816;2023-04-03T06:44:37;103160.34;;;21.36;36.42
17254;BME280;32542;52.832;13.816;2023-04-03T06:47:41;103154.00;;;21.47;36.62
17254;BME280;32542;52.832;13.816;2023-04-03T06:54:19;103165.34;;;21.63;36.98
17254;BME280;32542;52.832;13.816;2023-04-03T06:57:23;103162.75;;;21.57;37.54
17254;BME280;32542;52.832;13.816;2023-04-03T07:00:26;103167.28;;;21.52;35.62
17254;BME280;32542;52.832;13.816;2023-04-03T07:03:29;103173.47;;;21.54;35.60
17254;BME280;32542;52.832;13.816;2023-04-03T07:06:32;103177.81;;;21.61;35.97
17254;BME280;32542;52.832;13.816;2023-04-03T07:09:35;103172.41;;;21.67;36.23
17254;BME280;32542;52.832;13.816;2023-04-03T07:12:39;103182.06;;;21.74;36.61
17254;BME280;32542;52.832;13.816;2023-04-03T07:15:42;103182.91;;;21.79;36.77
17254;BME280;32542;52.832;13.816;2023-04-03T07:18:45;103184.66;;;21.82;37.08
17254;BME280;32542;52.832;13.816;2023-04-03T07:21:48;103187.31;;;21.83;37.28
17254;BME280;32542;52.832;13.816;2023-04-03T07:24:52;103181.09;;;21.84;37.35
17254;BME280;32542;52.832;13.816;2023-04-03T07:27:56;103188.19;;;21.85;37.48
17254;BME280;32542;52.832;13.816;2023-04-03T07:31:01;103198.84;;;21.85;37.81
17254;BME280;32542;52.832;13.816;2023-04-03T07:34:04;103200.63;;;21.86;37.99
17254;BME280;32542;52.832;13.816;2023-04-03T07:37:07;103199.75;;;21.86;38.20
17254;BME280;32542;52.832;13.816;2023-04-03T07:40:10;103201.53;;;21.85;38.21
17254;BME280;32542;52.832;13.816;2023-04-03T07:43:15;103192.63;;;21.85;38.15
17254;BME280;32542;52.832;13.816;2023-04-03T07:46:18;103206.00;;;21.83;38.41
17254;BME280;32542;52.832;13.816;2023-04-03T07:49:22;103214.91;;;21.82;38.56
17254;BME280;32542;52.832;13.816;2023-04-03T07:52:25;103208.66;;;21.82;38.71
17254;BME280;32542;52.832;13.816;2023-04-03T07:55:31;103204.25;;;21.79;38.83
17254;BME280;32542;52.832;13.816;2023-04-03T07:58:37;103207.78;;;21.78;38.90
17254;BME280;32542;52.832;13.816;2023-04-03T08:01:40;103211.38;;;21.77;39.12
17254;BME280;32542;52.832;13.816;2023-04-03T08:04:43;103205.19;;;21.75;39.32
17254;BME280;32542;52.832;13.816;2023-04-03T08:07:46;103205.22;;;21.73;39.41
17254;BME280;32542;52.832;13.816;2023-04-03T08:10:50;103210.56;;;21.73;39.53
17254;BME280;32542;52.832;13.816;2023-04-03T08:13:56;103207.88;;;21.72;39.73
17254;BME280;32542;52.832;13.816;2023-04-03T08:16:58;103190.13;;;21.71;39.74
17254;BME280;32542;52.832;13.816;2023-04-03T08:20:03;103195.47;;;21.69;39.97
17254;BME280;32542;52.832;13.816;2023-04-03T08:23:06;103202.59;;;21.69;39.96
17254;BME280;32542;52.832;13.816;2023-04-03T08:26:11;103197.28;;;21.69;40.07
17254;BME280;32542;52.832;13.816;2023-04-03T08:29:16;103197.28;;;21.69;40.12
17254;BME280;32542;52.832;13.816;2023-04-03T08:32:19;103199.94;;;21.67;40.31
17254;BME280;32542;52.832;13.816;2023-04-03T08:35:22;103195.50;;;21.68;40.26
17254;BME280;32542;52.832;13.816;2023-04-03T08:38:25;103186.63;;;21.66;40.47
17254;BME280;32542;52.832;13.816;2023-04-03T08:41:31;103190.22;;;21.65;40.41
17254;BME280;32542;52.832;13.816;2023-04-03T08:44:39;103199.09;;;21.64;40.37
17254;BME280;32542;52.832;13.816;2023-04-03T08:47:52;103192.03;;;21.63;40.58
17254;BME280;32542;52.832;13.816;2023-04-03T08:50:59;103193.81;;;21.61;40.67
17254;BME280;32542;52.832;13.816;2023-04-03T08:54:06;103196.50;;;21.59;40.74
17254;BME280;32542;52.832;13.816;2023-04-03T08:57:15;103192.03;;;21.60;40.94
17254;BME280;32542;52.832;13.816;2023-04-03T09:00:22;103195.59;;;21.59;41.10
17254;BME280;32542;52.832;13.816;2023-04-03T09:03:29;103188.53;;;21.58;41.15
17254;BME280;32542;52.832;13.816;2023-04-03T09:06:32;103188.53;;;21.58;41.18
17254;BME280;32542;52.832;13.816;2023-04-03T09:09:36;103186.75;;;21.57;41.24
17254;BME280;32542;52.832;13.816;2023-04-03T09:12:44;103195.59;;;21.59;41.32
17254;BME280;32542;52.832;13.816;2023-04-03T09:15:54;103195.59;;;21.59;41.29
17254;BME280;32542;52.832;13.816;2023-04-03T09:19:06;103188.53;;;21.58;41.42
17254;BME280;32542;52.832;13.816;2023-04-03T09:22:16;103188.53;;;21.58;41.46
17254;BME280;32542;52.832;13.816;2023-04-03T09:25:22;103186.75;;;21.58;41.50
17254;BME280;32542;52.832;13.816;2023-04-03T09:28:25;103177.84;;;21.58;41.63
17254;BME280;32542;52.832;13.816;2023-04-03T09:31:37;103194.75;;;21.58;41.50
17254;BME280;32542;52.832;13.816;2023-04-03T09:34:43;103188.53;;;21.58;41.62
17254;BME280;32542;52.832;13.816;2023-04-03T09:37:47;103192.06;;;21.57;41.67
17254;BME280;32542;52.832;13.816;2023-04-03T09:41:04;103200.06;;;21.58;41.69
17254;BME280;32542;52.832;13.816;2023-04-03T09:44:24;103183.22;;;21.56;41.53
17254;BME280;32542;52.832;13.816;2023-04-03T09:47:30;103185.88;;;21.56;41.71
17254;BME280;32542;52.832;13.816;2023-04-03T09:50:35;103182.31;;;21.56;41.72
17254;BME280;32542;52.832;13.816;2023-04-03T09:53:41;103181.41;;;21.57;41.69
17254;BME280;32542;52.832;13.816;2023-04-03T09:56:49;103177.84;;;21.58;41.74
17254;BME280;32542;52.832;13.816;2023-04-03T09:59:57;103176.06;;;21.58;41.91
17254;BME280;32542;52.832;13.816;2023-04-03T10:03:03;103185.84;;;21.58;42.28
17254;BME280;32542;52.832;13.816;2023-04-03T10:06:21;103187.63;;;21.57;41.71
17254;BME280;32542;52.832;13.816;2023-04-03T10:09:26;103176.97;;;21.57;41.83
17254;BME280;32542;52.832;13.816;2023-04-03T10:12:30;103174.31;;;21.56;41.80
17254;BME280;32542;52.832;13.816;2023-04-03T10:15:37;103173.44;;;21.55;41.71
17254;BME280;32542;52.832;13.816;2023-04-03T10:18:46;103177.88;;;21.55;41.75
17254;BME280;32542;52.832;13.816;2023-04-03T10:21:55;103182.34;;;21.54;41.86
17254;BME280;32542;52.832;13.816;2023-04-03T10:25:05;103176.13;;;21.54;41.91
17254;BME280;32542;52.832;13.816;2023-04-03T10:28:17;103176.13;;;21.54;41.87
17254;BME280;32542;52.832;13.816;2023-04-03T10:31:25;103170.78;;;21.54;41.89
17254;BME280;32542;52.832;13.816;2023-04-03T10:34:37;103168.13;;;21.54;41.95
17254;BME280;32542;52.832;13.816;2023-04-03T10:37:55;103171.66;;;21.56;41.98
17254;BME280;32542;52.832;13.816;2023-04-03T10:41:04;103169.88;;;21.55;41.96
17254;BME280;32542;52.832;13.816;2023-04-03T10:44:16;103167.22;;;21.55;41.95
17254;BME280;32542;52.832;13.816;2023-04-03T10:47:24;103172.56;;;21.53;41.96
17254;BME280;32542;52.832;13.816;2023-04-03T10:50:43;103166.34;;;21.54;42.02
17254;BME280;32542;52.832;13.816;2023-04-03T10:53:53;103155.69;;;21.54;42.03
17254;BME280;32542;52.832;13.816;2023-04-03T10:57:02;103156.53;;;21.55;42.14
17254;BME280;32542;52.832;13.816;2023-04-03T11:00:16;103146.81;;;21.54;42.13
17254;BME280;32542;52.832;13.816;2023-04-03T11:03:27;103151.22;;;21.55;42.20
17254;BME280;32542;52.832;13.816;2023-04-03T11:06:38;103141.44;;;21.55;42.14
17254;BME280;32542;52.832;13.816;2023-04-03T11:09:44;103140.53;;;21.55;42.16
17254;BME280;32542;52.832;13.816;2023-04-03T11:12:52;103141.44;;;21.55;42.21
17254;BME280;32542;52.832;13.816;2023-04-03T11:15:57;103129.88;;;21.55;42.18
17254;BME280;32542;52.832;13.816;2023-04-03T11:19:03;103135.22;;;21.56;42.27
17254;BME280;32542;52.832;13.816;2023-04-03T11:22:14;103115.66;;;21.56;42.23
17254;BME280;32542;52.832;13.816;2023-04-03T11:25:20;103121.88;;;21.56;42.17
17254;BME280;32542;52.832;13.816;2023-04-03T11:28:24;103115.66;;;21.56;42.34
17254;BME280;32542;52.832;13.816;2023-04-03T11:31:42;103110.34;;;21.56;42.27
17254;BME280;32542;52.832;13.816;2023-04-03T11:34:49;103108.56;;;21.55;42.43
17254;BME280;32542;52.832;13.816;2023-04-03T11:37:55;103121.00;;;21.56;42.31
17254;BME280;32542;52.832;13.816;2023-04-03T11:40:58;103109.44;;;21.55;42.37
17254;BME280;32542;52.832;13.816;2023-04-03T11:44:05;103105.00;;;21.56;42.40
17254;BME280;32542;52.832;13.816;2023-04-03T11:47:11;103103.22;;;21.55;42.50
17254;BME280;32542;52.832;13.816;2023-04-03T11:50:39;103105.00;;;21.56;42.39
17254;BME280;32542;52.832;13.816;2023-04-03T11:53:44;103110.34;;;21.56;42.50
17254;BME280;32542;52.832;13.816;2023-04-03T11:56:47;103113.00;;;21.56;42.45
17254;BME280;32542;52.832;13.816;2023-04-03T11:59:50;103105.88;;;21.56;42.34
17254;BME280;32542;52.832;13.816;2023-04-03T12:02:53;103105.00;;;21.56;42.25
17254;BME280;32542;52.832;13.816;2023-04-03T12:13:34;103105.94;;;21.52;42.31
17254;BME280;32542;52.832;13.816;2023-04-03T12:16:43;103108.63;;;21.52;42.36
17254;BME280;32542;52.832;13.816;2023-04-03T12:19:47;103112.16;;;21.51;42.36
17254;BME280;32542;52.832;13.816;2023-04-03T12:23:08;103106.84;;;21.51;42.31
17254;BME280;32542;52.832;13.816;2023-04-03T12:26:26;103107.75;;;21.50;42.28
17254;BME280;32542;52.832;13.816;2023-04-03T12:29:53;103121.94;;;21.50;42.36
17254;BME280;32542;52.832;13.816;2023-04-03T12:33:23;103120.19;;;21.49;42.49
17254;BME280;32542;52.832;13.816;2023-04-03T12:36:37;103119.31;;;21.49;42.53
17254;BME280;32542;52.832;13.816;2023-04-03T12:39:52;103106.84;;;21.51;42.50
17254;BME280;32542;52.832;13.816;2023-04-03T12:43:06;103106.84;;;21.51;42.64
17254;BME280;32542;52.832;13.816;2023-04-03T12:46:15;103104.16;;;21.51;42.67
17254;BME280;32542;52.832;13.816;2023-04-03T12:49:33;103105.03;;;21.53;42.76
17254;BME280;32542;52.832;13.816;2023-04-03T12:52:40;103099.69;;;21.53;42.79
17254;BME280;32542;52.832;13.816;2023-04-03T12:55:44;103105.03;;;21.53;42.65
17254;BME280;32542;52.832;13.816;2023-04-03T12:58:48;103099.69;;;21.53;42.81
17254;BME280;32542;52.832;13.816;2023-04-03T13:01:57;103102.38;;;21.53;43.00
17254;BME280;32542;52.832;13.816;2023-04-03T13:05:06;103098.84;;;21.52;43.08
17254;BME280;32542;52.832;13.816;2023-04-03T13:08:12;103094.34;;;21.53;43.20
17254;BME280;32542;52.832;13.816;2023-04-03T13:11:17;103097.03;;;21.53;43.13
17254;BME280;32542;52.832;13.816;2023-04-03T13:14:24;103089.88;;;21.55;43.09
17254;BME280;32542;52.832;13.816;2023-04-03T13:17:30;103086.38;;;21.54;43.10
17254;BME280;32542;52.832;13.816;2023-04-03T13:20:35;103086.34;;;21.56;43.06
17254;BME280;32542;52.832;13.816;2023-04-03T13:23:42;103073.00;;;21.56;43.03
17254;BME280;32542;52.832;13.816;2023-04-03T13:26:47;103066.78;;;21.55;42.96
17254;BME280;32542;52.832;13.816;2023-04-03T13:29:51;103073.00;;;21.56;42.90
17254;BME280;32542;52.832;13.816;2023-04-03T13:32:58;103065.00;;;21.56;43.04
17254;BME280;32542;52.832;13.816;2023-04-03T13:36:04;103065.88;;;21.55;42.66
17254;BME280;32542;52.832;13.816;2023-04-03T13:39:22;103070.34;;;21.56;42.62
17254;BME280;32542;52.832;13.816;2023-04-03T13:42:27;103073.03;;;21.54;42.75
17254;BME280;32542;52.832;13.816;2023-04-03T13:45:32;103071.22;;;21.55;42.90
17254;BME280;32542;52.832;13.816;2023-04-03T13:48:40;103071.22;;;21.55;42.88
17254;BME280;32542;52.832;13.816;2023-04-03T13:51:44;103076.56;;;21.55;42.95
17254;BME280;32542;52.832;13.816;2023-04-03T13:54:52;103067.66;;;21.56;42.91
17254;BME280;32542;52.832;13.816;2023-04-03T13:57:59;103073.00;;;21.56;42.93
17254;BME280;32542;52.832;13.816;2023-04-03T14:01:09;103068.53;;;21.58;43.05
17254;BME280;32542;52.832;13.816;2023-04-03T14:04:17;103072.09;;;21.58;43.08
17254;BME280;32542;52.832;13.816;2023-04-03T14:07:21;103065.84;;;21.58;43.06
17254;BME280;32542;52.832;13.816;2023-04-03T14:10:25;103060.53;;;21.58;43.06
17254;BME280;32542;52.832;13.816;2023-04-03T14:13:30;103058.75;;;21.57;43.08
17254;BME280;32542;52.832;13.816;2023-04-03T14:16:37;103061.41;;;21.57;43.10
17254;BME280;32542;52.832;13.816;2023-04-03T14:19:43;103058.75;;;21.57;43.22
17254;BME280;32542;52.832;13.816;2023-04-03T14:22:46;103057.88;;;21.56;43.14
17254;BME280;32542;52.832;13.816;2023-04-03T14:25:50;103061.44;;;21.55;43.19
17254;BME280;32542;52.832;13.816;2023-04-03T14:28:54;103065.88;;;21.56;43.18
17254;BME280;32542;52.832;13.816;2023-04-03T14:31:57;103057.88;;;21.56;43.21
17254;BME280;32542;52.832;13.816;2023-04-03T14:35:17;103052.56;;;21.56;43.23
17254;BME280;32542;52.832;13.816;2023-04-03T14:38:24;103053.41;;;21.57;43.36
17254;BME280;32542;52.832;13.816;2023-04-03T14:41:27;103055.19;;;21.58;43.35
17254;BME280;32542;52.832;13.816;2023-04-03T14:44:30;103042.75;;;21.58;43.35
17254;BME280;32542;52.832;13.816;2023-04-03T14:47:38;103044.50;;;21.59;43.37
17254;BME280;32542;52.832;13.816;2023-04-03T14:50:43;103041.03;;;21.53;42.02
17254;BME280;32542;52.832;13.816;2023-04-03T14:54:12;103032.50;;;21.30;37.97
17254;BME280;32542;52.832;13.816;2023-04-03T14:57:16;103028.16;;;21.21;38.66
17254;BME280;32542;52.832;13.816;2023-04-03T15:00:21;103029.94;;;21.21;38.80
17254;BME280;32542;52.832;13.816;2023-04-03T15:03:25;103034.38;;;21.22;38.85
17254;BME280;32542;52.832;13.816;2023-04-03T15:06:29;103031.69;;;21.25;39.27
17254;BME280;32542;52.832;13.816;2023-04-03T15:09:34;103039.63;;;21.28;39.55
17254;BME280;32542;52.832;13.816;2023-04-03T15:12:38;103041.34;;;21.32;39.69
17254;BME280;32542;52.832;13.816;2023-04-03T15:15:42;103042.22;;;21.35;39.97
17254;BME280;32542;52.832;13.816;2023-04-03T15:18:45;103043.03;;;21.39;40.02
17254;BME280;32542;52.832;13.816;2023-04-03T15:21:50;103046.56;;;21.41;40.27
17254;BME280;32542;52.832;13.816;2023-04-03T15:24:53;103042.03;;;21.44;40.27
17254;BME280;32542;52.832;13.816;2023-04-03T15:27:56;103041.13;;;21.47;40.43
17254;BME280;32542;52.832;13.816;2023-04-03T15:30:59;103039.31;;;21.49;40.53
17254;BME280;32542;52.832;13.816;2023-04-03T15:34:03;103042.84;;;21.51;40.61
17254;BME280;32542;52.832;13.816;2023-04-03T15:37:07;103033.94;;;21.53;40.72
17254;BME280;32542;52.832;13.816;2023-04-03T15:40:10;103033.03;;;21.53;40.71
17254;BME280;32542;52.832;13.816;2023-04-03T15:43:14;103027.72;;;21.54;40.76
17254;BME280;32542;52.832;13.816;2023-04-03T15:46:17;103028.56;;;21.55;40.86
17254;BME280;32542;52.832;13.816;2023-04-03T15:49:21;103024.13;;;21.55;40.95
17254;BME280;32542;52.832;13.816;2023-04-03T15:52:26;103027.66;;;21.56;41.08
17254;BME280;32542;52.832;13.816;2023-04-03T15:55:30;103031.19;;;21.58;41.30
17254;BME280;32542;52.832;13.816;2023-04-03T15:58:33;103021.41;;;21.57;41.37
17254;BME280;32542;52.832;13.816;2023-04-03T16:01:37;103028.53;;;21.58;41.26
17254;BME280;32542;52.832;13.816;2023-04-03T16:04:41;103031.22;;;21.56;41.35
17254;BME280;32542;52.832;13.816;2023-04-03T16:07:45;103029.41;;;21.57;41.43
17254;BME280;32542;52.832;13.816;2023-04-03T16:10:49;103037.41;;;21.57;41.56